createdAt,value
2019-05-13T00:00:15.118Z,98.70
2019-05-13T00:02:44.092Z,98.60
2019-05-13T00:05:14.624Z,98.80
2019-05-13T00:07:43.861Z,98.60
2019-05-13T00:10:14.752Z,98.70
2019-05-13T00:12:44.594Z,99.00
2019-05-13T00:15:14.135Z,99.00
2019-05-13T00:17:44.618Z,99.30
2019-05-13T00:20:14.081Z,99.60
2019-05-13T00:22:44.814Z,99.60
2019-05-13T00:25:14.557Z,99.90
2019-05-13T00:27:44.365Z,99.90
2019-05-13T00:30:14.421Z,99.90
2019-05-13T00:32:44.608Z,99.90
2019-05-13T00:35:14.154Z,99.70
2019-05-13T00:37:44.291Z,99.90
2019-05-13T00:40:14.352Z,99.90
2019-05-13T00:42:44.158Z,99.90
2019-05-13T00:45:14.598Z,99.90
2019-05-13T00:47:43.804Z,99.90
2019-05-13T00:50:14.139Z,99.90
2019-05-13T00:52:44.843Z,99.90
2019-05-13T00:55:14.817Z,99.90
2019-05-13T00:57:43.990Z,99.90
2019-05-13T01:00:14.023Z,99.90
2019-05-13T01:02:44.685Z,99.90
2019-05-13T01:05:14.606Z,99.90
2019-05-13T01:07:44.431Z,99.90
2019-05-13T01:10:13.535Z,99.90
2019-05-13T01:12:44.152Z,99.90
2019-05-13T01:15:13.545Z,99.90
2019-05-13T01:17:44.466Z,99.90
2019-05-13T01:20:14.484Z,99.90
2019-05-13T01:22:44.014Z,99.90
2019-05-13T01:25:14.396Z,99.90
2019-05-13T01:27:44.259Z,99.90
2019-05-13T01:30:13.449Z,99.90
2019-05-13T01:32:44.632Z,99.90
2019-05-13T01:35:14.824Z,99.90
2019-05-13T01:37:46.203Z,99.90
2019-05-13T01:40:14.212Z,99.90
2019-05-13T01:42:44.363Z,99.90
2019-05-13T01:45:13.968Z,99.90
2019-05-13T01:47:44.103Z,99.90
2019-05-13T01:50:14.389Z,99.90
2019-05-13T01:52:44.577Z,99.90
2019-05-13T01:55:14.761Z,99.90
2019-05-13T01:57:44.331Z,99.90
2019-05-13T02:00:14.148Z,99.90
2019-05-13T02:02:44.517Z,99.90
2019-05-13T02:05:13.967Z,99.90
2019-05-13T02:07:56.892Z,99.90
2019-05-13T02:10:15.505Z,99.90
2019-05-13T02:12:44.733Z,99.90
2019-05-13T02:15:14.836Z,99.90
2019-05-13T02:17:44.603Z,99.90
2019-05-13T02:20:14.962Z,99.90
2019-05-13T02:22:44.436Z,99.90
2019-05-13T02:25:13.967Z,99.90
2019-05-13T02:27:44.028Z,99.90
2019-05-13T02:30:15.961Z,99.90
2019-05-13T02:32:43.551Z,99.90
2019-05-13T02:35:13.948Z,99.90
2019-05-13T02:37:43.393Z,99.90
2019-05-13T02:40:13.476Z,99.90
2019-05-13T02:42:43.637Z,99.90
2019-05-13T02:45:12.931Z,99.90
2019-05-13T02:47:44.156Z,99.90
2019-05-13T02:50:13.109Z,99.90
2019-05-13T02:52:44.248Z,99.90
2019-05-13T02:55:12.729Z,99.90
2019-05-13T02:57:43.676Z,99.90
2019-05-13T03:00:13.181Z,99.90
2019-05-13T03:02:43.821Z,99.90
2019-05-13T03:05:13.750Z,99.90
2019-05-13T03:07:43.103Z,99.90
2019-05-13T03:10:13.521Z,99.90
2019-05-13T03:12:42.803Z,99.90
2019-05-13T03:15:13.603Z,99.90
2019-05-13T03:17:47.164Z,99.90
2019-05-13T03:20:16.916Z,99.90
2019-05-13T03:22:45.529Z,99.90
2019-05-13T03:25:14.087Z,99.90
2019-05-13T03:27:42.939Z,99.90
2019-05-13T03:30:16.500Z,99.90
2019-05-13T03:32:50.385Z,99.90
2019-05-13T03:35:16.547Z,99.90
2019-05-13T03:37:42.586Z,99.90
2019-05-13T03:40:13.468Z,99.90
2019-05-13T03:42:44.273Z,99.90
2019-05-13T03:45:13.128Z,99.90
2019-05-13T03:47:43.484Z,99.90
2019-05-13T03:50:13.360Z,99.90
2019-05-13T03:52:43.313Z,99.90
2019-05-13T03:55:13.020Z,99.90
2019-05-13T03:57:42.734Z,99.90
2019-05-13T04:00:13.179Z,99.90
2019-05-13T04:02:42.909Z,99.90
2019-05-13T04:05:13.464Z,99.90
2019-05-13T04:07:43.429Z,99.90
2019-05-13T04:10:13.127Z,99.90
2019-05-13T04:12:42.623Z,99.90
2019-05-13T04:15:12.714Z,99.90
2019-05-13T04:17:42.799Z,99.90
2019-05-13T04:20:12.556Z,99.90
2019-05-13T04:22:42.503Z,99.90
2019-05-13T04:25:12.806Z,99.90
2019-05-13T04:27:42.897Z,99.90
2019-05-13T04:30:13.276Z,99.90
2019-05-13T04:32:44.236Z,99.90
2019-05-13T04:35:12.908Z,99.90
2019-05-13T04:37:43.163Z,99.90
2019-05-13T04:40:12.836Z,99.90
2019-05-13T04:42:42.705Z,99.90
2019-05-13T04:45:13.407Z,99.90
2019-05-13T04:47:43.149Z,99.90
2019-05-13T04:50:12.862Z,99.90
2019-05-13T04:52:42.325Z,99.90
2019-05-13T04:55:13.156Z,99.90
2019-05-13T04:57:42.917Z,99.90
2019-05-13T05:00:12.808Z,99.90
2019-05-13T05:02:55.217Z,99.90
2019-05-13T05:05:52.756Z,99.90
2019-05-13T05:08:47.338Z,99.90
2019-05-13T05:11:52.925Z,99.90
2019-05-13T05:14:52.880Z,99.90
2019-05-13T05:17:39.181Z,99.90
2019-05-13T05:20:32.246Z,99.90
2019-05-13T05:23:12.652Z,99.90
2019-05-13T05:25:52.059Z,99.90
2019-05-13T05:28:41.501Z,99.90
2019-05-13T05:31:29.146Z,99.90
2019-05-13T05:34:06.454Z,99.90
2019-05-13T05:37:03.479Z,99.90
2019-05-13T05:39:32.196Z,99.90
2019-05-13T05:42:02.236Z,99.90
2019-05-13T05:44:32.671Z,99.90
2019-05-13T05:47:02.971Z,99.90
2019-05-13T05:49:32.143Z,99.90
2019-05-13T05:52:07.537Z,99.90
2019-05-13T05:54:38.162Z,99.90
2019-05-13T05:57:11.855Z,99.90
2019-05-13T05:59:41.854Z,99.90
2019-05-13T06:02:12.178Z,99.90
2019-05-13T06:04:43.107Z,99.90
2019-05-13T06:07:11.586Z,99.90
2019-05-13T06:09:42.199Z,99.90
2019-05-13T06:12:12.096Z,99.90
2019-05-13T06:14:42.286Z,99.90
2019-05-13T06:17:11.569Z,99.90
2019-05-13T06:19:41.867Z,99.90
2019-05-13T06:22:12.256Z,99.90
2019-05-13T06:24:42.034Z,99.90
2019-05-13T06:27:11.823Z,99.90
2019-05-13T06:29:42.305Z,99.90
2019-05-13T06:32:21.167Z,99.90
2019-05-13T06:34:41.568Z,99.90
2019-05-13T06:37:11.460Z,99.90
2019-05-13T06:39:41.962Z,99.90
2019-05-13T06:42:11.613Z,99.90
2019-05-13T06:44:42.164Z,99.90
2019-05-13T06:47:11.435Z,99.90
2019-05-13T06:49:42.611Z,99.90
2019-05-13T06:52:12.029Z,99.90
2019-05-13T06:54:41.859Z,99.90
2019-05-13T06:57:13.397Z,99.90
2019-05-13T06:59:41.963Z,99.90
2019-05-13T07:02:12.412Z,99.90
2019-05-13T07:04:41.596Z,99.90
2019-05-13T07:07:16.719Z,99.90
2019-05-13T07:09:42.715Z,99.90
2019-05-13T07:12:11.351Z,99.90
2019-05-13T07:14:41.347Z,99.90
2019-05-13T07:17:12.137Z,99.90
2019-05-13T07:19:41.402Z,99.90
2019-05-13T07:22:11.643Z,99.90
2019-05-13T07:24:41.401Z,99.90
2019-05-13T07:27:12.251Z,99.90
2019-05-13T07:29:42.395Z,99.90
2019-05-13T07:32:11.975Z,99.90
2019-05-13T07:34:43.961Z,99.90
2019-05-13T07:37:11.474Z,99.90
2019-05-13T07:39:41.856Z,99.90
2019-05-13T07:42:12.332Z,99.90
2019-05-13T07:44:41.681Z,99.90
2019-05-13T07:47:11.674Z,98.90
2019-05-13T07:49:42.000Z,98.10
2019-05-13T07:52:12.032Z,97.90
2019-05-13T07:54:42.062Z,97.40
2019-05-13T07:57:12.288Z,98.40
2019-05-13T07:59:41.934Z,97.70
2019-05-13T08:02:12.353Z,98.20
2019-05-13T08:04:42.053Z,96.70
2019-05-13T08:07:11.994Z,96.40
2019-05-13T08:09:41.891Z,96.30
2019-05-13T08:12:14.154Z,96.40
2019-05-13T08:14:43.302Z,96.30
2019-05-13T08:17:11.620Z,96.30
2019-05-13T08:19:41.418Z,96.80
2019-05-13T08:22:11.720Z,96.20
2019-05-13T08:24:42.449Z,95.10
2019-05-13T08:27:11.786Z,94.20
2019-05-13T08:29:42.178Z,94.70
2019-05-13T08:32:11.362Z,95.20
2019-05-13T08:34:41.809Z,94.10
2019-05-13T08:37:11.344Z,92.80
2019-05-13T08:39:41.469Z,93.10
2019-05-13T08:42:15.929Z,92.30
2019-05-13T08:44:41.680Z,92.70
2019-05-13T08:47:12.039Z,92.50
2019-05-13T08:49:41.438Z,93.30
2019-05-13T08:52:12.065Z,91.90
2019-05-13T08:54:41.862Z,90.70
2019-05-13T08:57:11.828Z,92.10
2019-05-13T08:59:42.277Z,93.10
2019-05-13T09:02:11.544Z,91.10
2019-05-13T09:04:42.247Z,87.30
2019-05-13T09:07:12.139Z,88.80
2019-05-13T09:09:41.947Z,89.10
2019-05-13T09:12:11.570Z,89.20
2019-05-13T09:14:41.667Z,85.00
2019-05-13T09:17:13.397Z,83.80
2019-05-13T09:19:42.087Z,78.60
2019-05-13T09:22:12.416Z,75.00
2019-05-13T09:24:42.533Z,79.00
2019-05-13T09:27:12.149Z,77.40
2019-05-13T09:29:42.761Z,75.90
2019-05-13T09:32:12.241Z,75.20
2019-05-13T09:34:43.805Z,73.10
2019-05-13T09:37:12.437Z,74.40
2019-05-13T09:39:41.582Z,71.20
2019-05-13T09:42:12.838Z,71.20
2019-05-13T09:44:42.073Z,71.80
2019-05-13T09:47:12.454Z,68.90
2019-05-13T09:49:42.077Z,70.60
2019-05-13T09:52:11.880Z,69.20
2019-05-13T09:54:42.509Z,66.20
2019-05-13T09:57:12.180Z,65.80
2019-05-13T09:59:42.218Z,65.70
2019-05-13T10:02:12.424Z,67.80
2019-05-13T10:04:43.772Z,68.40
2019-05-13T10:07:12.288Z,68.00
2019-05-13T10:09:42.932Z,68.90
2019-05-13T10:12:12.298Z,68.40
2019-05-13T10:14:40.886Z,66.70
2019-05-13T10:17:09.424Z,66.30
2019-05-13T10:19:38.119Z,66.50
2019-05-13T10:22:06.983Z,62.00
2019-05-13T10:24:35.651Z,65.10
2019-05-13T10:27:04.289Z,65.10
2019-05-13T10:29:33.257Z,64.40
2019-05-13T10:32:03.424Z,63.40
2019-05-13T10:34:33.868Z,63.80
2019-05-13T10:37:02.813Z,60.80
2019-05-13T10:39:31.612Z,58.50
2019-05-13T10:42:03.110Z,58.90
2019-05-13T10:44:30.289Z,60.50
2019-05-13T10:46:58.914Z,61.60
2019-05-13T10:49:27.444Z,62.20
2019-05-13T10:51:55.971Z,62.80
2019-05-13T10:54:24.551Z,62.10
2019-05-13T10:56:58.919Z,63.30
2019-05-13T10:59:23.337Z,61.70
2019-05-13T11:01:51.972Z,61.50
2019-05-13T11:04:22.216Z,60.40
2019-05-13T11:06:52.428Z,58.90
2019-05-13T11:09:21.767Z,59.30
2019-05-13T11:11:52.815Z,60.30
2019-05-13T11:14:22.035Z,59.80
2019-05-13T11:16:52.247Z,60.40
2019-05-13T11:19:23.088Z,61.00
2019-05-13T11:21:51.695Z,61.00
2019-05-13T11:24:22.610Z,57.80
2019-05-13T11:26:52.344Z,57.60
2019-05-13T11:29:22.889Z,57.30
2019-05-13T11:31:52.417Z,56.50
2019-05-13T11:34:22.097Z,56.10
2019-05-13T11:36:53.195Z,57.50
2019-05-13T11:39:22.246Z,58.00
2019-05-13T11:41:50.908Z,56.70
2019-05-13T11:44:22.474Z,53.60
2019-05-13T11:46:52.743Z,54.20
2019-05-13T11:49:19.824Z,53.30
2019-05-13T11:51:48.634Z,52.40
2019-05-13T11:54:17.320Z,52.70
2019-05-13T11:56:50.365Z,52.50
2019-05-13T11:59:16.633Z,49.80
2019-05-13T12:01:45.148Z,50.60
2019-05-13T12:04:13.906Z,50.70
2019-05-13T12:06:48.609Z,49.60
2019-05-13T12:09:13.491Z,48.60
2019-05-13T12:11:42.389Z,46.00
2019-05-13T12:14:37.066Z,46.50
2019-05-13T12:16:42.294Z,48.00
2019-05-13T12:19:11.808Z,47.30
2019-05-13T12:21:43.268Z,48.30
2019-05-13T12:24:11.489Z,46.30
2019-05-13T12:26:43.108Z,46.00
2019-05-13T12:29:18.379Z,43.50
2019-05-13T12:31:40.585Z,43.50
2019-05-13T12:34:12.763Z,39.50
2019-05-13T12:36:42.952Z,39.00
2019-05-13T12:39:13.801Z,39.20
2019-05-13T12:41:42.061Z,37.80
2019-05-13T12:44:12.736Z,39.10
2019-05-13T12:46:42.340Z,38.60
2019-05-13T12:49:14.206Z,37.90
2019-05-13T12:51:43.945Z,37.10
2019-05-13T12:54:13.696Z,35.40
2019-05-13T12:56:42.506Z,34.00
2019-05-13T12:59:13.257Z,33.20
2019-05-13T13:01:41.662Z,33.10
2019-05-13T13:04:12.298Z,34.00
2019-05-13T13:06:45.038Z,34.50
2019-05-13T13:09:12.657Z,35.60
2019-05-13T13:11:43.561Z,34.10
2019-05-13T13:14:15.128Z,32.30
2019-05-13T13:16:42.424Z,31.60
2019-05-13T13:19:14.637Z,34.20
2019-05-13T13:21:41.648Z,36.30
2019-05-13T13:24:12.423Z,34.40
2019-05-13T13:26:42.760Z,32.90
2019-05-13T13:29:10.828Z,31.30
2019-05-13T13:31:43.291Z,30.00
2019-05-13T13:34:17.067Z,29.70
2019-05-13T13:36:45.230Z,28.50
2019-05-13T13:39:13.718Z,29.70
2019-05-13T13:41:43.519Z,29.70
2019-05-13T13:44:12.425Z,29.20
2019-05-13T13:46:44.482Z,28.50
2019-05-13T13:49:12.921Z,27.50
2019-05-13T13:51:44.510Z,28.30
2019-05-13T13:54:11.624Z,28.90
2019-05-13T13:56:43.942Z,28.60
2019-05-13T13:59:13.839Z,27.80
2019-05-13T14:01:41.120Z,28.60
2019-05-13T14:04:09.782Z,29.60
2019-05-13T14:09:12.040Z,27.10
2019-05-13T14:11:42.013Z,28.70
2019-05-13T14:14:12.442Z,27.90
2019-05-13T14:16:42.758Z,29.00
2019-05-13T14:19:10.980Z,28.30
2019-05-13T14:21:41.630Z,29.80
2019-05-13T14:24:11.985Z,28.70
2019-05-13T14:26:43.187Z,28.00
2019-05-13T14:29:12.330Z,27.60
2019-05-13T14:31:41.353Z,28.00
2019-05-13T14:34:11.494Z,27.30
2019-05-13T14:36:40.237Z,26.50
2019-05-13T14:39:08.943Z,26.60
2019-05-13T14:41:37.472Z,27.80
2019-05-13T14:44:06.083Z,26.90
2019-05-13T14:46:46.770Z,26.60
2019-05-13T14:49:05.591Z,25.40
2019-05-13T14:51:34.128Z,25.60
2019-05-13T14:54:02.865Z,27.80
2019-05-13T14:56:32.402Z,29.20
2019-05-13T14:59:02.695Z,28.40
2019-05-13T15:01:31.931Z,26.90
2019-05-13T15:04:02.772Z,27.90
2019-05-13T15:06:32.742Z,27.90
2019-05-13T15:09:01.853Z,26.40
2019-05-13T15:11:32.405Z,24.80
2019-05-13T15:14:02.412Z,25.30
2019-05-13T15:16:31.778Z,25.90
2019-05-13T15:19:01.590Z,26.10
2019-05-13T15:21:32.123Z,26.50
2019-05-13T15:24:02.243Z,26.50
2019-05-13T15:26:31.100Z,25.20
2019-05-13T15:29:04.741Z,25.20
2019-05-13T15:31:31.609Z,25.90
2019-05-13T15:34:02.621Z,25.90
2019-05-13T15:36:31.536Z,25.50
2019-05-13T15:39:01.432Z,25.20
2019-05-13T15:41:30.273Z,25.40
2019-05-13T15:43:59.024Z,25.90
2019-05-13T15:46:27.556Z,24.90
2019-05-13T15:48:56.088Z,24.00
2019-05-13T15:51:24.573Z,23.90
2019-05-13T15:53:53.147Z,24.50
2019-05-13T15:56:22.749Z,24.40
2019-05-13T15:58:52.970Z,24.00
2019-05-13T16:01:22.913Z,24.90
2019-05-13T16:03:52.430Z,25.50
2019-05-13T16:06:21.188Z,26.70
2019-05-13T16:08:51.824Z,27.70
2019-05-13T16:11:21.979Z,27.50
2019-05-13T16:13:51.810Z,27.50
2019-05-13T16:16:21.800Z,26.20
2019-05-13T16:18:51.556Z,26.70
2019-05-13T16:21:20.337Z,27.40
2019-05-13T16:25:34.067Z,26.30
2019-05-13T16:28:02.701Z,24.50
2019-05-13T16:30:32.337Z,25.10
2019-05-13T16:33:02.818Z,23.80
2019-05-13T16:35:31.986Z,24.10
2019-05-13T16:38:01.830Z,25.10
2019-05-13T16:40:36.164Z,25.30
2019-05-13T16:43:01.339Z,25.00
2019-05-13T16:45:31.586Z,24.90
2019-05-13T16:48:01.508Z,24.50
2019-05-13T16:50:31.340Z,24.80
2019-05-13T16:53:01.914Z,26.10
2019-05-13T16:55:32.631Z,25.80
2019-05-13T16:58:01.946Z,26.10
2019-05-13T17:00:31.713Z,26.40
2019-05-13T17:03:02.309Z,25.40
2019-05-13T17:05:32.611Z,26.10
2019-05-13T17:08:02.072Z,25.70
2019-05-13T17:10:31.600Z,25.90
2019-05-13T17:13:02.944Z,25.30
2019-05-13T17:15:31.202Z,26.10
2019-05-13T17:18:09.343Z,26.60
2019-05-13T17:20:31.987Z,28.30
2019-05-13T17:23:01.794Z,28.40
2019-05-13T17:25:30.585Z,29.00
2019-05-13T17:28:02.506Z,28.10
2019-05-13T17:30:31.974Z,28.10
2019-05-13T17:33:02.330Z,28.60
2019-05-13T17:35:31.331Z,28.70
2019-05-13T17:38:01.848Z,28.90
2019-05-13T17:40:31.454Z,28.90
2019-05-13T17:43:00.050Z,29.50
2019-05-13T17:45:28.606Z,30.30
2019-05-13T17:47:57.077Z,31.50
2019-05-13T17:50:25.770Z,31.90
2019-05-13T17:52:54.304Z,30.60
2019-05-13T17:55:22.833Z,29.80
2019-05-13T17:57:51.414Z,29.10
2019-05-13T18:00:21.625Z,29.00
2019-05-13T18:02:51.405Z,29.10
2019-05-13T18:05:22.343Z,29.20
2019-05-13T18:07:51.318Z,29.70
2019-05-13T18:10:22.381Z,29.10
2019-05-13T18:12:51.095Z,28.30
2019-05-13T18:15:21.990Z,28.50
2019-05-13T18:17:52.143Z,29.00
2019-05-13T18:20:21.705Z,29.00
2019-05-13T18:22:52.323Z,29.30
2019-05-13T18:25:22.269Z,29.60
2019-05-13T18:27:52.096Z,29.70
2019-05-13T18:30:20.908Z,30.20
2019-05-13T18:32:51.631Z,30.40
2019-05-13T18:35:21.878Z,30.20
2019-05-13T18:37:49.892Z,30.30
2019-05-13T18:40:18.709Z,30.00
2019-05-13T18:42:47.166Z,30.50
2019-05-13T18:45:15.903Z,30.70
2019-05-13T18:47:44.701Z,31.20
2019-05-13T18:50:13.327Z,32.20
2019-05-13T18:52:42.145Z,32.70
2019-05-13T18:55:12.433Z,33.10
2019-05-13T18:57:41.304Z,33.50
2019-05-13T19:00:11.115Z,34.00
2019-05-13T19:02:41.481Z,33.80
2019-05-13T19:05:11.851Z,34.80
2019-05-13T19:07:41.827Z,34.20
2019-05-13T19:10:11.553Z,35.00
2019-05-13T19:12:42.058Z,35.20
2019-05-13T19:15:11.470Z,35.30
2019-05-13T19:17:41.526Z,36.00
2019-05-13T19:20:11.571Z,36.50
2019-05-13T19:22:41.299Z,36.50
2019-05-13T19:25:11.884Z,36.40
2019-05-13T19:27:41.313Z,36.90
2019-05-13T19:30:12.150Z,36.40
2019-05-13T19:32:41.591Z,37.50
2019-05-13T19:35:11.768Z,37.40
2019-05-13T19:37:42.511Z,37.50
2019-05-13T19:40:12.982Z,37.40
2019-05-13T19:42:41.967Z,38.00
2019-05-13T19:45:12.397Z,38.20
2019-05-13T19:47:41.784Z,38.40
2019-05-13T19:50:11.128Z,38.60
2019-05-13T19:52:41.525Z,38.90
2019-05-13T19:55:12.114Z,39.20
2019-05-13T19:57:42.428Z,39.50
2019-05-13T20:00:14.002Z,39.60
2019-05-13T20:02:42.202Z,39.60
2019-05-13T20:05:11.071Z,40.10
2019-05-13T20:07:41.737Z,39.70
2019-05-13T20:10:11.892Z,39.90
2019-05-13T20:12:42.042Z,41.60
2019-05-13T20:15:11.711Z,43.40
2019-05-13T20:17:41.598Z,41.90
2019-05-13T20:20:12.346Z,41.90
2019-05-13T20:22:42.223Z,41.20
2019-05-13T20:25:13.138Z,41.20
2019-05-13T20:27:42.118Z,41.30
2019-05-13T20:30:11.398Z,41.20
2019-05-13T20:32:40.073Z,40.80
2019-05-13T20:35:08.670Z,40.40
2019-05-13T20:37:37.255Z,41.00
2019-05-13T20:40:05.862Z,41.10
2019-05-13T20:42:34.673Z,41.50
2019-05-13T20:45:03.282Z,41.50
2019-05-13T20:47:33.394Z,41.70
2019-05-13T20:50:02.547Z,42.20
2019-05-13T20:52:31.506Z,42.40
2019-05-13T20:55:01.894Z,42.70
2019-05-13T20:57:32.220Z,43.20
2019-05-13T21:00:02.397Z,43.00
2019-05-13T21:02:31.965Z,43.40
2019-05-13T21:05:01.628Z,43.20
2019-05-13T21:07:32.063Z,43.90
2019-05-13T21:10:01.450Z,44.00
2019-05-13T21:12:31.345Z,44.20
2019-05-13T21:15:01.429Z,44.10
2019-05-13T21:17:30.279Z,44.50
2019-05-13T21:20:01.093Z,44.20
2019-05-13T21:22:29.012Z,44.00
2019-05-13T21:24:57.548Z,44.40
2019-05-13T21:27:26.029Z,44.50
2019-05-13T21:29:54.628Z,44.20
2019-05-13T21:32:23.184Z,44.40
2019-05-13T21:34:51.806Z,44.20
2019-05-13T21:37:22.121Z,44.20
2019-05-13T21:39:51.651Z,43.90
2019-05-13T21:42:21.644Z,43.60
2019-05-13T21:44:51.255Z,43.90
2019-05-13T21:47:21.933Z,43.60
2019-05-13T21:49:51.541Z,43.90
2019-05-13T21:52:21.581Z,44.40
2019-05-13T21:54:51.655Z,43.70
2019-05-13T21:57:20.259Z,43.50
2019-05-13T21:59:48.715Z,43.80
2019-05-13T22:02:17.266Z,43.80
2019-05-13T22:04:46.196Z,43.60
2019-05-13T22:07:14.753Z,44.30
2019-05-13T22:09:43.239Z,43.90
2019-05-13T22:12:11.866Z,44.30
2019-05-13T22:14:41.182Z,44.50
2019-05-13T22:17:12.263Z,44.50
2019-05-13T22:19:41.930Z,44.40
2019-05-13T22:22:11.615Z,45.10
2019-05-13T22:24:41.796Z,45.30
2019-05-13T22:27:13.206Z,45.20
2019-05-13T22:29:41.679Z,45.80
2019-05-13T22:32:11.311Z,45.70
2019-05-13T22:34:41.922Z,45.70
2019-05-13T22:37:11.698Z,45.90
2019-05-13T22:39:42.116Z,46.20
2019-05-13T22:42:12.502Z,46.50
2019-05-13T22:44:41.769Z,46.40
2019-05-13T22:47:13.059Z,46.30
2019-05-13T22:49:40.633Z,46.10
2019-05-13T22:52:11.270Z,46.70
2019-05-13T22:54:41.187Z,46.50
2019-05-13T22:57:11.985Z,46.60
2019-05-13T22:59:41.591Z,46.80
2019-05-13T23:02:10.228Z,46.90
2019-05-13T23:04:38.703Z,47.10
2019-05-13T23:07:07.164Z,47.40
2019-05-13T23:09:35.712Z,47.30
2019-05-13T23:12:04.168Z,47.40
2019-05-13T23:14:32.655Z,47.60
2019-05-13T23:17:02.261Z,47.10
2019-05-13T23:19:32.262Z,47.80
2019-05-13T23:22:01.672Z,48.00
2019-05-13T23:24:31.171Z,47.70
2019-05-13T23:27:01.961Z,48.00
2019-05-13T23:29:31.892Z,48.10
2019-05-13T23:32:01.444Z,48.00
2019-05-13T23:34:31.864Z,47.90
2019-05-13T23:37:00.472Z,47.60
2019-05-13T23:39:28.933Z,47.50
2019-05-13T23:41:57.476Z,47.70
2019-05-13T23:44:28.165Z,47.70
2019-05-13T23:46:56.270Z,47.60
2019-05-13T23:49:24.802Z,47.70
2019-05-13T23:51:53.339Z,47.50
2019-05-13T23:54:21.825Z,47.60
2019-05-13T23:56:50.361Z,48.20
2019-05-13T23:59:18.848Z,48.20
